Etusivu
METAR-TAF:

METAR-TAF

Lentoasemat :

Boscobel Airport

Boscobel, Wisconsin, Yhdysvallat

Leveyspiiri: 43-09-22N, Pituuspiiri: 090-40-39W, korkeus merenpinnasta: 205 m

Tämänhetkinen sää

Tämä raportti tehtiin 57 minuuttia sitten, kello 08.53 UTC
tyyntä
Lämpötila -15°C
Kosteus 78%
Ilmanpaine 1035 hPa
Näkyvyys: 16.1 km
selkeää

METAR: KOVS 190853Z AUTO 00000KT 10SM CLR M15/M18 A3055 RMK AO2 SLP358 I3001 T11501178 53014

Aika: 03:50 (09:50 UTC)


TAF: puuttuu

Säähavainnot ja -ennusteet yli 4000 lentoasemalta (METAR- ja TAF-raportit).

Käytössä olevat sääasemat on merkitty karttaan keltaisilla ja punaisilla pisteillä.

Aseta hiiri pisteen päälle nähdäksesi sääaseman nimen.

Klikkaa sitten nähdäksesi säähavainnot ja -ennusteet.

Kartan vaihtaminen: klikkaa mustalla rastilla varustettuja vihreitä pisteitä, niin voit zoomata sisään; viivalla varustettua vihreää pistettä, niin voit zoomata ulos tai vihreitä nuolia, niin pääset viereisille kartoille.


METAR-TAF: